Tucana — PBAQ — position and weather

sailwx.info

Track history (hours):
 
Tides and Currents Weather Stations Pressure Air Temp Water Temp Dewpoint Dewpoint Depression Visibility Wind Speed Wind Dir Waves Ship Positions

Tucana

Last reported at 2017-Sep-20 21:53 UTC. Time now 2017-Sep-24 03:34 UTC.
Position N 60°16' E 019°02'.

Length 88 m; draft 5.4 m.

Type: Ship. MMSI: 245050000.

Date/timePositionNaut miles runAvg speedWind from/ knotsBaromVisibWave heightAir tempDewpointWater temp
2017-Sep-20 21:53N 60°16' E 019°02'4 9.8
2017-Sep-20 21:30N 60°12' E 019°04'5 9.7
2017-Sep-20 21:00N 60°08' E 019°10'510.0
2017-Sep-20 20:30N 60°04' E 019°17'8 9.9
2017-Sep-20 19:43N 59°58' E 019°27'210.0
2017-Sep-20 19:28N 59°56' E 019°30'510.0
2017-Sep-20 18:55N 59°52' E 019°37'4 9.8
2017-Sep-20 18:31N 59°49' E 019°42'258 8.9
2017-Sep-19 13:31N 55°56' E 016°19'0 9.6
2017-Sep-19 13:28N 55°55' E 016°18'4 9.5
2017-Sep-19 13:00N 55°53' E 016°11'5 9.7
2017-Sep-19 12:31N 55°51' E 016°04'5 9.7
2017-Sep-19 12:01N 55°48' E 015°56'5 9.5
2017-Sep-19 11:31N 55°46' E 015°49'5 9.7
2017-Sep-19 11:00N 55°43' E 015°41'5 9.8
2017-Sep-19 10:31N 55°41' E 015°34'5 9.8
2017-Sep-19 10:00N 55°39' E 015°26'5 9.7
2017-Sep-19 09:30N 55°36' E 015°19'5 9.8
2017-Sep-19 09:01N 55°34' E 015°12'5 9.7
2017-Sep-19 08:27N 55°31' E 015°03'5 9.7
2017-Sep-19 07:56N 55°28' E 014°56'4 9.8
2017-Sep-19 07:30N 55°26' E 014°49'5 9.9
2017-Sep-19 07:00N 55°24' E 014°42'5 9.7
2017-Sep-19 06:30N 55°21' E 014°35'5 9.7
2017-Sep-19 06:00N 55°17' E 014°29'5 9.9
2017-Sep-19 05:30N 55°14' E 014°24'5 9.3
2017-Sep-19 04:57N 55°11' E 014°16'5 9.8
2017-Sep-19 04:25N 55°11' E 014°06'710.0
2017-Sep-19 03:44N 55°11' E 013°55'33 9.8
2017-Sep-19 00:19N 55°14' E 012°56'3 9.7
2017-Sep-19 00:00N 55°15' E 012°51'510.0
2017-Sep-18 23:30N 55°17' E 012°43'4 8.4
2017-Sep-18 23:01N 55°20' E 012°38'5 9.9
2017-Sep-18 22:30N 55°25' E 012°40'5 9.8
2017-Sep-18 22:01N 55°30' E 012°41'5 9.5
2017-Sep-18 21:30N 55°35' E 012°42'5 9.3
2017-Sep-18 21:00N 55°39' E 012°41'5 9.1
2017-Sep-18 20:30N 55°44' E 012°41'5 9.4
2017-Sep-18 20:01N 55°49' E 012°41'5 9.5
2017-Sep-18 19:31N 55°53' E 012°39'4 9.0
2017-Sep-18 19:01N 55°58' E 012°38'5 9.0
2017-Sep-18 18:30N 56°02' E 012°38'4 7.4
2017-Sep-18 18:01N 56°05' E 012°35'4 8.0
2017-Sep-18 17:30N 56°08' E 012°29'5 9.6
2017-Sep-18 17:01N 56°10' E 012°22'69 9.2
2017-Sep-18 09:32N 57°14' E 011°33'4 9.6
2017-Sep-18 09:05N 57°18' E 011°30'2 9.5
2017-Sep-18 08:54N 57°19' E 011°29'4 9.2
2017-Sep-18 08:25N 57°24' E 011°27'4 9.1
2017-Sep-18 07:57N 57°28' E 011°24'4 9.3
2017-Sep-18 07:30N 57°30' E 011°19'5 9.5
2017-Sep-18 07:00N 57°34' E 011°12'5 9.4
2017-Sep-18 06:29N 57°37' E 011°05'4 9.5
2017-Sep-18 06:00N 57°40' E 010°59'5 9.5
2017-Sep-18 05:30N 57°43' E 010°52'5 9.5
2017-Sep-18 05:00N 57°46' E 010°46'5 9.3
2017-Sep-18 04:29N 57°47' E 010°37'510.0
2017-Sep-18 03:59N 57°47' E 010°27'510.5
2017-Sep-18 03:27N 57°47' E 010°17'79 9.9
2017-Sep-17 19:25N 57°43' E 007°48'4 9.0
2017-Sep-17 19:00N 57°43' E 007°41'4 8.7
2017-Sep-17 18:30N 57°43' E 007°33'4 8.5
2017-Sep-17 18:00N 57°43' E 007°25'4 8.3
2017-Sep-17 17:30N 57°43' E 007°17'4 8.4
2017-Sep-17 17:00N 57°43' E 007°09'6 8.3
2017-Sep-17 16:16N 57°44' E 006°58'2 8.3
2017-Sep-17 15:59N 57°44' E 006°53'4 8.5
2017-Sep-17 15:29N 57°44' E 006°45'12 8.2
2017-Sep-17 14:00N 57°49' E 006°25'4 8.7
2017-Sep-17 13:29N 57°52' E 006°18'5 8.8
2017-Sep-17 12:59N 57°55' E 006°12'4 8.9
2017-Sep-17 12:29N 57°57' E 006°06'5 9.1
2017-Sep-17 11:57N 58°01' E 005°59'13 9.1
2017-Sep-17 10:30N 58°09' E 005°40'5 9.6
2017-Sep-17 10:00N 58°12' E 005°33'5 9.8
2017-Sep-17 09:30N 58°16' E 005°26'23 8.8
2017-Sep-17 06:55N 58°36' E 005°05'4 9.2
2017-Sep-17 06:30N 58°39' E 005°03'4 9.0
2017-Sep-17 06:00N 58°44' E 005°00'5 8.8
2017-Sep-17 05:25N 58°48' E 004°57'4 9.0
2017-Sep-17 05:00N 58°52' E 004°55'101 9.1
2017-Sep-16 17:59N 60°31' E 004°23'5 9.4
2017-Sep-16 17:30N 60°36' E 004°22'5 9.4
2017-Sep-16 17:00N 60°41' E 004°22'5 9.2
2017-Sep-16 16:30N 60°45' E 004°20'5 9.4
2017-Sep-16 16:00N 60°50' E 004°18'5 8.9
2017-Sep-16 15:30N 60°54' E 004°17'4 8.3
2017-Sep-16 15:00N 60°58' E 004°17'4 8.5
2017-Sep-16 14:30N 61°02' E 004°19'5 9.1
2017-Sep-16 14:00N 61°07' E 004°21'5 9.4
2017-Sep-16 13:30N 61°11' E 004°23'5 9.7
2017-Sep-16 13:00N 61°16' E 004°24'5 9.7
2017-Sep-16 12:30N 61°21' E 004°26'5 9.8
2017-Sep-16 12:00N 61°26' E 004°26'5 9.9
2017-Sep-16 11:30N 61°31' E 004°28'510.0
2017-Sep-16 11:00N 61°36' E 004°30'5 9.9
2017-Sep-16 10:29N 61°41' E 004°32'510.2
2017-Sep-16 10:00N 61°45' E 004°35'5 9.9
2017-Sep-16 09:30N 61°50' E 004°38'5 9.8
2017-Sep-16 09:00N 61°55' E 004°41'510.2
2017-Sep-16 08:30N 61°60' E 004°45'5 9.8
2017-Sep-16 08:00N 62°04' E 004°49'5 9.3
2017-Sep-16 07:30N 62°08' E 004°54'4 9.0
2017-Sep-16 07:00N 62°11' E 005°00'5 8.9
2017-Sep-16 06:30N 62°14' E 005°08'4 8.2
2017-Sep-16 06:00N 62°13' E 005°16'4 7.9
2017-Sep-16 05:30N 62°10' E 005°21'5 9.4
2017-Sep-16 04:59N 62°06' E 005°27'4 2.1
2017-Sep-16 03:14N 62°03' E 005°31'0 0.1
2017-Sep-16 02:59N 62°03' E 005°31'0 0.0
2017-Sep-16 02:26N 62°03' E 005°31'0 0.0
2017-Sep-16 01:56N 62°03' E 005°31'0 0.0
2017-Sep-15 14:51N 62°03' E 005°31'0 0.0
2017-Sep-15 14:30N 62°03' E 005°31'0 0.0
2017-Sep-15 13:39N 62°03' E 005°31'0 0.0
2017-Sep-15 13:26N 62°03' E 005°31'0 0.0
2017-Sep-15 12:53N 62°03' E 005°31'0 0.0
2017-Sep-15 12:02N 62°03' E 005°31'0 0.0
2017-Sep-15 11:59N 62°03' E 005°31'0 0.0
2017-Sep-15 11:29N 62°03' E 005°31'0 0.0
2017-Sep-15 10:58N 62°03' E 005°31'0 0.0
2017-Sep-15 10:28N 62°03' E 005°31'0 0.0
2017-Sep-15 09:55N 62°03' E 005°31'0 0.0
2017-Sep-15 09:28N 62°03' E 005°31'0 0.0
2017-Sep-15 08:58N 62°03' E 005°31'0 0.0
2017-Sep-15 08:30N 62°03' E 005°31'0 0.0
2017-Sep-15 07:48N 62°03' E 005°31'0 0.0
2017-Sep-15 07:30N 62°03' E 005°31'0 0.0
2017-Sep-15 07:00N 62°03' E 005°31'0 0.0
2017-Sep-15 06:26N 62°03' E 005°31'0 0.0
2017-Sep-15 05:56N 62°03' E 005°31'0 0.0
2017-Sep-15 05:30N 62°03' E 005°31'2 3.7
2017-Sep-15 04:59N 62°04' E 005°29'510.8
2017-Sep-15 04:30N 62°08' E 005°22'5 9.5
2017-Sep-15 04:00N 62°13' E 005°17'4 8.9
2017-Sep-15 03:30N 62°14' E 005°08'4 8.0
2017-Sep-15 03:00N 62°12' E 005°01'4 8.1
2017-Sep-15 02:30N 62°09' E 004°56'5 8.7
2017-Sep-15 01:59N 62°05' E 004°50'5 9.2
2017-Sep-15 01:30N 62°01' E 004°45'5 9.2
2017-Sep-15 01:00N 61°57' E 004°42'5 9.2
2017-Sep-15 00:29N 61°52' E 004°39'5 9.3
2017-Sep-14 23:59N 61°48' E 004°37'5 9.5
2017-Sep-14 23:30N 61°43' E 004°34'5 9.4
2017-Sep-14 23:00N 61°39' E 004°31'4 8.8
2017-Sep-14 22:30N 61°35' E 004°28'4 8.6
2017-Sep-14 22:00N 61°31' E 004°25'4 8.9
2017-Sep-14 21:30N 61°26' E 004°23'4 8.8
2017-Sep-14 21:00N 61°22' E 004°21'5 9.1
2017-Sep-14 20:30N 61°18' E 004°18'482 9.6
2017-Sep-12 18:10N 53°36' W 000°04'2 9.9
2017-Sep-12 17:58N 53°37' W 000°07'3 6.0
2017-Sep-12 17:30N 53°38' W 000°11'0 0.3
2017-Sep-12 16:58N 53°38' W 000°11'0 0.1
2017-Sep-12 16:16N 53°38' W 000°11'0 0.0
2017-Sep-12 15:58N 53°38' W 000°11'0 0.0
2017-Sep-12 15:27N 53°38' W 000°11'0 0.0
2017-Sep-12 15:00N 53°38' W 000°11'0 0.0
2017-Sep-12 14:30N 53°38' W 000°11'0 0.0
2017-Sep-12 14:00N 53°38' W 000°11'0 0.0
2017-Sep-12 13:30N 53°38' W 000°11'0 0.0
2017-Sep-12 12:59N 53°38' W 000°11'0 0.0
2017-Sep-12 12:26N 53°38' W 000°11'0 0.0
2017-Sep-12 11:59N 53°38' W 000°11'0 0.0
2017-Sep-12 11:23N 53°38' W 000°11'0 0.0
2017-Sep-12 10:59N 53°38' W 000°11'0 0.0
2017-Sep-12 10:28N 53°38' W 000°11'0 0.0
2017-Sep-12 09:58N 53°38' W 000°11'0 0.0
2017-Sep-12 09:22N 53°38' W 000°11'0 0.0
2017-Sep-12 08:55N 53°38' W 000°11'0 0.0
2017-Sep-12 08:24N 53°38' W 000°11'0 0.0
2017-Sep-12 07:48N 53°38' W 000°11'0 0.0
2017-Sep-12 07:30N 53°38' W 000°11'0 0.0
2017-Sep-12 06:54N 53°38' W 000°11'0 0.0
2017-Sep-12 06:30N 53°38' W 000°11'0 0.0
2017-Sep-12 05:59N 53°38' W 000°11'0 0.0
2017-Sep-12 05:29N 53°38' W 000°11'0 0.0
2017-Sep-12 04:56N 53°38' W 000°11'0 0.0
2017-Sep-12 04:29N 53°38' W 000°11'0 0.0
2017-Sep-12 03:55N 53°38' W 000°11'0 0.0
2017-Sep-12 03:28N 53°38' W 000°11'0 0.0
2017-Sep-12 02:52N 53°38' W 000°11'0 0.0
2017-Sep-12 02:28N 53°38' W 000°11'0 0.0
2017-Sep-12 01:58N 53°38' W 000°11'0 0.0
2017-Sep-12 01:30N 53°38' W 000°11'0 0.0
2017-Sep-12 00:57N 53°38' W 000°11'0 0.0
2017-Sep-12 00:27N 53°38' W 000°11'0 0.0
2017-Sep-12 00:00N 53°38' W 000°11'0 0.0
2017-Sep-11 23:30N 53°38' W 000°11'0 0.0
2017-Sep-11 22:59N 53°38' W 000°11'0 0.0
2017-Sep-11 22:29N 53°38' W 000°11'0 0.0
2017-Sep-11 21:59N 53°38' W 000°11'0 0.0
2017-Sep-11 21:29N 53°38' W 000°11'0 0.0
2017-Sep-11 20:58N 53°38' W 000°11'0 0.0
2017-Sep-11 20:25N 53°38' W 000°11'0 0.0
2017-Sep-11 19:58N 53°38' W 000°11'0 0.0
2017-Sep-11 19:28N 53°38' W 000°11'0 0.0
2017-Sep-11 18:58N 53°38' W 000°11'0 0.0
2017-Sep-11 18:27N 53°38' W 000°11'0 0.0
2017-Sep-11 18:00N 53°38' W 000°11'0 0.0
2017-Sep-11 17:30N 53°38' W 000°11'0 0.0
2017-Sep-11 16:54N 53°38' W 000°11'0 0.0
2017-Sep-11 16:29N 53°38' W 000°11'0 0.0
2017-Sep-11 15:59N 53°38' W 000°11'0 0.0
2017-Sep-11 15:26N 53°38' W 000°11'0 0.0
2017-Sep-11 14:50N 53°38' W 000°11'0 0.0
2017-Sep-11 14:29N 53°38' W 000°11'0 0.0
2017-Sep-11 13:58N 53°38' W 000°11'0 0.0
2017-Sep-11 13:25N 53°38' W 000°11'0 0.0
2017-Sep-11 12:58N 53°38' W 000°11'0 0.0
2017-Sep-11 12:25N 53°38' W 000°11'0 0.0
2017-Sep-11 12:01N 53°38' W 000°11'0 0.2
2017-Sep-11 11:30N 53°38' W 000°12'0 0.7
2017-Sep-11 11:00N 53°38' W 000°11'0 0.6
2017-Sep-11 10:30N 53°38' W 000°11'1 2.2
2017-Sep-11 10:00N 53°38' W 000°09'5 8.7
2017-Sep-11 09:29N 53°36' W 000°02'  
Track history (hours):
 
Tides and Currents Weather Stations Pressure Air Temp Water Temp Dewpoint Dewpoint Depression Visibility Wind Speed Wind Dir Waves Ship Positions

Tucana

Last reported at 2017-Sep-20 21:53 UTC. Time now 2017-Sep-24 03:34 UTC.
Position N 60°16' E 019°02'.

Length 88 m; draft 5.4 m.

Type: Ship. MMSI: 245050000.

Date/timePositionNaut miles runAvg speedWind from/ knotsBaromVisibWave heightAir tempDewpointWater temp
2017-Sep-20 21:53N 60°16' E 019°02'4 9.8
2017-Sep-20 21:30N 60°12' E 019°04'5 9.7
2017-Sep-20 21:00N 60°08' E 019°10'510.0
2017-Sep-20 20:30N 60°04' E 019°17'8 9.9
2017-Sep-20 19:43N 59°58' E 019°27'210.0
2017-Sep-20 19:28N 59°56' E 019°30'510.0
2017-Sep-20 18:55N 59°52' E 019°37'4 9.8
2017-Sep-20 18:31N 59°49' E 019°42'258 8.9
2017-Sep-19 13:31N 55°56' E 016°19'0 9.6
2017-Sep-19 13:28N 55°55' E 016°18'4 9.5
2017-Sep-19 13:00N 55°53' E 016°11'5 9.7
2017-Sep-19 12:31N 55°51' E 016°04'5 9.7
2017-Sep-19 12:01N 55°48' E 015°56'5 9.5
2017-Sep-19 11:31N 55°46' E 015°49'5 9.7
2017-Sep-19 11:00N 55°43' E 015°41'5 9.8
2017-Sep-19 10:31N 55°41' E 015°34'5 9.8
2017-Sep-19 10:00N 55°39' E 015°26'5 9.7
2017-Sep-19 09:30N 55°36' E 015°19'5 9.8
2017-Sep-19 09:01N 55°34' E 015°12'5 9.7
2017-Sep-19 08:27N 55°31' E 015°03'5 9.7
2017-Sep-19 07:56N 55°28' E 014°56'4 9.8
2017-Sep-19 07:30N 55°26' E 014°49'5 9.9
2017-Sep-19 07:00N 55°24' E 014°42'5 9.7
2017-Sep-19 06:30N 55°21' E 014°35'5 9.7
2017-Sep-19 06:00N 55°17' E 014°29'5 9.9
2017-Sep-19 05:30N 55°14' E 014°24'5 9.3
2017-Sep-19 04:57N 55°11' E 014°16'5 9.8
2017-Sep-19 04:25N 55°11' E 014°06'710.0
2017-Sep-19 03:44N 55°11' E 013°55'33 9.8
2017-Sep-19 00:19N 55°14' E 012°56'3 9.7
2017-Sep-19 00:00N 55°15' E 012°51'510.0
2017-Sep-18 23:30N 55°17' E 012°43'4 8.4
2017-Sep-18 23:01N 55°20' E 012°38'5 9.9
2017-Sep-18 22:30N 55°25' E 012°40'5 9.8
2017-Sep-18 22:01N 55°30' E 012°41'5 9.5
2017-Sep-18 21:30N 55°35' E 012°42'5 9.3
2017-Sep-18 21:00N 55°39' E 012°41'5 9.1
2017-Sep-18 20:30N 55°44' E 012°41'5 9.4
2017-Sep-18 20:01N 55°49' E 012°41'5 9.5
2017-Sep-18 19:31N 55°53' E 012°39'4 9.0
2017-Sep-18 19:01N 55°58' E 012°38'5 9.0
2017-Sep-18 18:30N 56°02' E 012°38'4 7.4
2017-Sep-18 18:01N 56°05' E 012°35'4 8.0
2017-Sep-18 17:30N 56°08' E 012°29'5 9.6
2017-Sep-18 17:01N 56°10' E 012°22'69 9.2
2017-Sep-18 09:32N 57°14' E 011°33'4 9.6
2017-Sep-18 09:05N 57°18' E 011°30'2 9.5
2017-Sep-18 08:54N 57°19' E 011°29'4 9.2
2017-Sep-18 08:25N 57°24' E 011°27'4 9.1
2017-Sep-18 07:57N 57°28' E 011°24'4 9.3
2017-Sep-18 07:30N 57°30' E 011°19'5 9.5
2017-Sep-18 07:00N 57°34' E 011°12'5 9.4
2017-Sep-18 06:29N 57°37' E 011°05'4 9.5
2017-Sep-18 06:00N 57°40' E 010°59'5 9.5
2017-Sep-18 05:30N 57°43' E 010°52'5 9.5
2017-Sep-18 05:00N 57°46' E 010°46'5 9.3
2017-Sep-18 04:29N 57°47' E 010°37'510.0
2017-Sep-18 03:59N 57°47' E 010°27'510.5
2017-Sep-18 03:27N 57°47' E 010°17'79 9.9
2017-Sep-17 19:25N 57°43' E 007°48'4 9.0
2017-Sep-17 19:00N 57°43' E 007°41'4 8.7
2017-Sep-17 18:30N 57°43' E 007°33'4 8.5
2017-Sep-17 18:00N 57°43' E 007°25'4 8.3
2017-Sep-17 17:30N 57°43' E 007°17'4 8.4
2017-Sep-17 17:00N 57°43' E 007°09'6 8.3
2017-Sep-17 16:16N 57°44' E 006°58'2 8.3
2017-Sep-17 15:59N 57°44' E 006°53'4 8.5
2017-Sep-17 15:29N 57°44' E 006°45'12 8.2
2017-Sep-17 14:00N 57°49' E 006°25'4 8.7
2017-Sep-17 13:29N 57°52' E 006°18'5 8.8
2017-Sep-17 12:59N 57°55' E 006°12'4 8.9
2017-Sep-17 12:29N 57°57' E 006°06'5 9.1
2017-Sep-17 11:57N 58°01' E 005°59'13 9.1
2017-Sep-17 10:30N 58°09' E 005°40'5 9.6
2017-Sep-17 10:00N 58°12' E 005°33'5 9.8
2017-Sep-17 09:30N 58°16' E 005°26'23 8.8
2017-Sep-17 06:55N 58°36' E 005°05'4 9.2
2017-Sep-17 06:30N 58°39' E 005°03'4 9.0
2017-Sep-17 06:00N 58°44' E 005°00'5 8.8
2017-Sep-17 05:25N 58°48' E 004°57'4 9.0
2017-Sep-17 05:00N 58°52' E 004°55'101 9.1
2017-Sep-16 17:59N 60°31' E 004°23'5 9.4
2017-Sep-16 17:30N 60°36' E 004°22'5 9.4
2017-Sep-16 17:00N 60°41' E 004°22'5 9.2
2017-Sep-16 16:30N 60°45' E 004°20'5 9.4
2017-Sep-16 16:00N 60°50' E 004°18'5 8.9
2017-Sep-16 15:30N 60°54' E 004°17'4 8.3
2017-Sep-16 15:00N 60°58' E 004°17'4 8.5
2017-Sep-16 14:30N 61°02' E 004°19'5 9.1
2017-Sep-16 14:00N 61°07' E 004°21'5 9.4
2017-Sep-16 13:30N 61°11' E 004°23'5 9.7
2017-Sep-16 13:00N 61°16' E 004°24'5 9.7
2017-Sep-16 12:30N 61°21' E 004°26'5 9.8
2017-Sep-16 12:00N 61°26' E 004°26'5 9.9
2017-Sep-16 11:30N 61°31' E 004°28'510.0
2017-Sep-16 11:00N 61°36' E 004°30'5 9.9
2017-Sep-16 10:29N 61°41' E 004°32'510.2
2017-Sep-16 10:00N 61°45' E 004°35'5 9.9
2017-Sep-16 09:30N 61°50' E 004°38'5 9.8
2017-Sep-16 09:00N 61°55' E 004°41'510.2
2017-Sep-16 08:30N 61°60' E 004°45'5 9.8
2017-Sep-16 08:00N 62°04' E 004°49'5 9.3
2017-Sep-16 07:30N 62°08' E 004°54'4 9.0
2017-Sep-16 07:00N 62°11' E 005°00'5 8.9
2017-Sep-16 06:30N 62°14' E 005°08'4 8.2
2017-Sep-16 06:00N 62°13' E 005°16'4 7.9
2017-Sep-16 05:30N 62°10' E 005°21'5 9.4
2017-Sep-16 04:59N 62°06' E 005°27'4 2.1
2017-Sep-16 03:14N 62°03' E 005°31'0 0.1
2017-Sep-16 02:59N 62°03' E 005°31'0 0.0
2017-Sep-16 02:26N 62°03' E 005°31'0 0.0
2017-Sep-16 01:56N 62°03' E 005°31'0 0.0
2017-Sep-15 14:51N 62°03' E 005°31'0 0.0
2017-Sep-15 14:30N 62°03' E 005°31'0 0.0
2017-Sep-15 13:39N 62°03' E 005°31'0 0.0
2017-Sep-15 13:26N 62°03' E 005°31'0 0.0
2017-Sep-15 12:53N 62°03' E 005°31'0 0.0
2017-Sep-15 12:02N 62°03' E 005°31'0 0.0
2017-Sep-15 11:59N 62°03' E 005°31'0 0.0
2017-Sep-15 11:29N 62°03' E 005°31'0 0.0
2017-Sep-15 10:58N 62°03' E 005°31'0 0.0
2017-Sep-15 10:28N 62°03' E 005°31'0 0.0
2017-Sep-15 09:55N 62°03' E 005°31'0 0.0
2017-Sep-15 09:28N 62°03' E 005°31'0 0.0
2017-Sep-15 08:58N 62°03' E 005°31'0 0.0
2017-Sep-15 08:30N 62°03' E 005°31'0 0.0
2017-Sep-15 07:48N 62°03' E 005°31'0 0.0
2017-Sep-15 07:30N 62°03' E 005°31'0 0.0
2017-Sep-15 07:00N 62°03' E 005°31'0 0.0
2017-Sep-15 06:26N 62°03' E 005°31'0 0.0
2017-Sep-15 05:56N 62°03' E 005°31'0 0.0
2017-Sep-15 05:30N 62°03' E 005°31'2 3.7
2017-Sep-15 04:59N 62°04' E 005°29'510.8
2017-Sep-15 04:30N 62°08' E 005°22'5 9.5
2017-Sep-15 04:00N 62°13' E 005°17'4 8.9
2017-Sep-15 03:30N 62°14' E 005°08'4 8.0
2017-Sep-15 03:00N 62°12' E 005°01'4 8.1
2017-Sep-15 02:30N 62°09' E 004°56'5 8.7
2017-Sep-15 01:59N 62°05' E 004°50'5 9.2
2017-Sep-15 01:30N 62°01' E 004°45'5 9.2
2017-Sep-15 01:00N 61°57' E 004°42'5 9.2
2017-Sep-15 00:29N 61°52' E 004°39'5 9.3
2017-Sep-14 23:59N 61°48' E 004°37'5 9.5
2017-Sep-14 23:30N 61°43' E 004°34'5 9.4
2017-Sep-14 23:00N 61°39' E 004°31'4 8.8
2017-Sep-14 22:30N 61°35' E 004°28'4 8.6
2017-Sep-14 22:00N 61°31' E 004°25'4 8.9
2017-Sep-14 21:30N 61°26' E 004°23'4 8.8
2017-Sep-14 21:00N 61°22' E 004°21'5 9.1
2017-Sep-14 20:30N 61°18' E 004°18'482 9.6
2017-Sep-12 18:10N 53°36' W 000°04'2 9.9
2017-Sep-12 17:58N 53°37' W 000°07'3 6.0
2017-Sep-12 17:30N 53°38' W 000°11'0 0.3
2017-Sep-12 16:58N 53°38' W 000°11'0 0.1
2017-Sep-12 16:16N 53°38' W 000°11'0 0.0
2017-Sep-12 15:58N 53°38' W 000°11'0 0.0
2017-Sep-12 15:27N 53°38' W 000°11'0 0.0
2017-Sep-12 15:00N 53°38' W 000°11'0 0.0
2017-Sep-12 14:30N 53°38' W 000°11'0 0.0
2017-Sep-12 14:00N 53°38' W 000°11'0 0.0
2017-Sep-12 13:30N 53°38' W 000°11'0 0.0
2017-Sep-12 12:59N 53°38' W 000°11'0 0.0
2017-Sep-12 12:26N 53°38' W 000°11'0 0.0
2017-Sep-12 11:59N 53°38' W 000°11'0 0.0
2017-Sep-12 11:23N 53°38' W 000°11'0 0.0
2017-Sep-12 10:59N 53°38' W 000°11'0 0.0
2017-Sep-12 10:28N 53°38' W 000°11'0 0.0
2017-Sep-12 09:58N 53°38' W 000°11'0 0.0
2017-Sep-12 09:22N 53°38' W 000°11'0 0.0
2017-Sep-12 08:55N 53°38' W 000°11'0 0.0
2017-Sep-12 08:24N 53°38' W 000°11'0 0.0
2017-Sep-12 07:48N 53°38' W 000°11'0 0.0
2017-Sep-12 07:30N 53°38' W 000°11'0 0.0
2017-Sep-12 06:54N 53°38' W 000°11'0 0.0
2017-Sep-12 06:30N 53°38' W 000°11'0 0.0
2017-Sep-12 05:59N 53°38' W 000°11'0 0.0
2017-Sep-12 05:29N 53°38' W 000°11'0 0.0
2017-Sep-12 04:56N 53°38' W 000°11'0 0.0
2017-Sep-12 04:29N 53°38' W 000°11'0 0.0
2017-Sep-12 03:55N 53°38' W 000°11'0 0.0
2017-Sep-12 03:28N 53°38' W 000°11'0 0.0
2017-Sep-12 02:52N 53°38' W 000°11'0 0.0
2017-Sep-12 02:28N 53°38' W 000°11'0 0.0
2017-Sep-12 01:58N 53°38' W 000°11'0 0.0
2017-Sep-12 01:30N 53°38' W 000°11'0 0.0
2017-Sep-12 00:57N 53°38' W 000°11'0 0.0
2017-Sep-12 00:27N 53°38' W 000°11'0 0.0
2017-Sep-12 00:00N 53°38' W 000°11'0 0.0
2017-Sep-11 23:30N 53°38' W 000°11'0 0.0
2017-Sep-11 22:59N 53°38' W 000°11'0 0.0
2017-Sep-11 22:29N 53°38' W 000°11'0 0.0
2017-Sep-11 21:59N 53°38' W 000°11'0 0.0
2017-Sep-11 21:29N 53°38' W 000°11'0 0.0
2017-Sep-11 20:58N 53°38' W 000°11'0 0.0
2017-Sep-11 20:25N 53°38' W 000°11'0 0.0
2017-Sep-11 19:58N 53°38' W 000°11'0 0.0
2017-Sep-11 19:28N 53°38' W 000°11'0 0.0
2017-Sep-11 18:58N 53°38' W 000°11'0 0.0
2017-Sep-11 18:27N 53°38' W 000°11'0 0.0
2017-Sep-11 18:00N 53°38' W 000°11'0 0.0
2017-Sep-11 17:30N 53°38' W 000°11'0 0.0
2017-Sep-11 16:54N 53°38' W 000°11'0 0.0
2017-Sep-11 16:29N 53°38' W 000°11'0 0.0
2017-Sep-11 15:59N 53°38' W 000°11'0 0.0
2017-Sep-11 15:26N 53°38' W 000°11'0 0.0
2017-Sep-11 14:50N 53°38' W 000°11'0 0.0
2017-Sep-11 14:29N 53°38' W 000°11'0 0.0
2017-Sep-11 13:58N 53°38' W 000°11'0 0.0
2017-Sep-11 13:25N 53°38' W 000°11'0 0.0
2017-Sep-11 12:58N 53°38' W 000°11'0 0.0
2017-Sep-11 12:25N 53°38' W 000°11'0 0.0
2017-Sep-11 12:01N 53°38' W 000°11'0 0.2
2017-Sep-11 11:30N 53°38' W 000°12'0 0.7
2017-Sep-11 11:00N 53°38' W 000°11'0 0.6
2017-Sep-11 10:30N 53°38' W 000°11'1 2.2
2017-Sep-11 10:00N 53°38' W 000°09'5 8.7
2017-Sep-11 09:29N 53°36' W 000°02'  

Dump ship's entire track history